Time;durP1;ratioP1;P1;durP2;ratioP2;P2;SDS_P1;SDS_P2;PMS_P1;PMS_P2;Temp;Humidity;BMP_temperature;BMP_pressure;BME280_temperature;BME280_humidity;BME280_pressure;Samples;Min_cycle;Max_cycle;Signal;HPM_P1;HPM_P2
2023/08/20 00:00:53;;;;;;;1999.90;999.90;;;23.90;99.90;;;;;;5043384;28;20192;-92
2023/08/20 00:03:18;;;;;;;1999.90;999.90;;;23.90;99.90;;;;;;5042780;28;20185;-93
2023/08/20 00:05:45;;;;;;;1999.90;999.90;;;24.00;99.90;;;;;;5033448;28;20176;-95
2023/08/20 00:08:10;;;;;;;1999.90;999.90;;;23.90;99.90;;;;;;5024599;28;20194;-94
2023/08/20 00:10:36;;;;;;;1999.90;999.90;;;23.90;99.90;;;;;;5024622;28;20177;-93
2023/08/20 00:13:04;;;;;;;1999.90;999.90;;;23.90;99.90;;;;;;5024119;28;20182;-94
2023/08/20 00:15:30;;;;;;;1999.90;999.90;;;23.90;99.90;;;;;;5025583;28;20249;-94
2023/08/20 00:17:56;;;;;;;1999.90;999.90;;;24.00;99.90;;;;;;5024699;28;20237;-92
2023/08/20 00:20:22;;;;;;;1999.90;999.90;;;23.90;99.90;;;;;;5006835;28;20650;-93
2023/08/20 00:22:48;;;;;;;1999.90;999.90;;;23.80;99.90;;;;;;5024469;28;20220;-92
2023/08/20 00:25:15;;;;;;;1999.90;999.90;;;23.90;99.90;;;;;;5024576;28;20173;-96
2023/08/20 00:27:42;;;;;;;1999.90;999.90;;;23.90;99.90;;;;;;5025255;28;20265;-93
2023/08/20 00:30:08;;;;;;;1999.90;999.90;;;23.80;99.90;;;;;;5030636;28;20177;-93
2023/08/20 00:32:35;;;;;;;1999.90;999.90;;;23.80;99.90;;;;;;5045830;28;20181;-94
2023/08/20 00:35:02;;;;;;;1999.90;999.90;;;23.70;99.90;;;;;;5044505;28;20177;-94
2023/08/20 00:37:28;;;;;;;1999.90;999.90;;;23.70;99.90;;;;;;5043662;28;20201;-93
2023/08/20 00:39:54;;;;;;;1999.90;999.90;;;23.70;99.90;;;;;;5044139;28;20279;-92
2023/08/20 00:42:20;;;;;;;1999.90;999.90;;;23.60;99.90;;;;;;5044555;28;20221;-93
2023/08/20 00:44:45;;;;;;;1999.90;999.90;;;23.60;99.90;;;;;;5026309;28;20173;-94
2023/08/20 00:47:13;;;;;;;1999.90;999.90;;;23.60;99.90;;;;;;5043279;28;20215;-93
2023/08/20 00:49:40;;;;;;;1999.90;999.90;;;23.50;99.90;;;;;;5025765;28;20181;-91
2023/08/20 00:52:09;;;;;;;1999.90;999.90;;;23.50;99.90;;;;;;5042159;28;20180;-94
2023/08/20 00:54:35;;;;;;;1999.90;999.90;;;23.50;99.90;;;;;;5043496;28;20207;-93
2023/08/20 00:57:02;;;;;;;1999.90;999.90;;;23.60;99.90;;;;;;5044489;28;20209;-94
2023/08/20 00:59:30;;;;;;;1999.90;999.90;;;23.50;99.90;;;;;;5047903;28;20192;-94
2023/08/20 01:01:55;;;;;;;1999.90;999.90;;;23.50;99.90;;;;;;5029322;28;20231;-93
2023/08/20 01:04:21;;;;;;;1999.90;999.90;;;23.50;99.90;;;;;;5046146;28;20177;-94
2023/08/20 01:06:56;;;;;;;1999.90;999.90;;;23.50;99.90;;;;;;5047212;28;20201;-91
2023/08/20 01:09:33;;;;;;;1999.90;999.90;;;23.50;99.90;;;;;;5047298;28;20161;-94
2023/08/20 01:12:02;;;;;;;1999.90;999.90;;;23.50;99.90;;;;;;5047975;28;20176;-95
2023/08/20 01:14:28;;;;;;;1999.90;999.90;;;23.40;99.90;;;;;;5047996;28;20592;-94
2023/08/20 01:16:53;;;;;;;1999.90;999.90;;;23.30;99.90;;;;;;5047605;28;20201;-92
2023/08/20 01:19:21;;;;;;;1999.90;999.90;;;23.30;99.90;;;;;;5048140;28;20251;-93
2023/08/20 01:22:08;;;;;;;1999.90;999.90;;;23.20;99.90;;;;;;5047622;28;20223;-94
2023/08/20 01:24:40;;;;;;;1999.90;999.90;;;23.20;99.90;;;;;;5046925;28;20173;-93
2023/08/20 01:27:46;;;;;;;1999.90;999.90;;;23.20;99.90;;;;;;5047038;28;20212;-95
2023/08/20 01:30:12;;;;;;;1999.90;999.90;;;23.30;99.90;;;;;;5028900;28;20172;-95
2023/08/20 01:32:41;;;;;;;1999.90;999.90;;;23.30;99.90;;;;;;5047088;28;20187;-93
2023/08/20 01:35:12;;;;;;;1999.90;999.90;;;23.30;99.90;;;;;;5047633;28;20173;-94
2023/08/20 01:37:39;;;;;;;1999.90;999.90;;;23.00;99.90;;;;;;5046428;28;20596;-93
2023/08/20 01:40:06;;;;;;;1999.90;999.90;;;22.90;99.90;;;;;;5047211;28;20180;-94
2023/08/20 01:42:32;;;;;;;1999.90;999.90;;;22.90;99.90;;;;;;5045828;28;20223;-92
2023/08/20 01:44:58;;;;;;;1999.90;999.90;;;22.90;99.90;;;;;;5043981;28;20217;-92
2023/08/20 01:47:23;;;;;;;1999.90;999.90;;;22.90;99.90;;;;;;5045589;28;20208;-94
2023/08/20 01:49:49;;;;;;;1999.90;999.90;;;22.90;99.90;;;;;;5046150;28;20264;-94
2023/08/20 01:52:15;;;;;;;1999.90;999.90;;;23.00;99.90;;;;;;5047064;28;20192;-93
2023/08/20 01:54:41;;;;;;;1999.90;999.90;;;23.00;99.90;;;;;;5046433;28;20180;-91
2023/08/20 01:57:06;;;;;;;1999.90;999.90;;;22.90;99.90;;;;;;5046728;28;20243;-95
2023/08/20 01:59:32;;;;;;;1999.90;999.90;;;22.80;99.90;;;;;;5046488;28;20195;-94
2023/08/20 02:01:58;;;;;;;1999.90;999.90;;;22.90;99.90;;;;;;5046387;28;20204;-94
2023/08/20 02:04:23;;;;;;;1999.90;999.90;;;22.80;99.90;;;;;;5045975;28;20185;-92
2023/08/20 02:06:49;;;;;;;1999.90;999.90;;;22.80;99.90;;;;;;5045664;28;20193;-94
2023/08/20 02:09:15;;;;;;;1999.90;999.90;;;22.80;99.90;;;;;;5045810;28;20177;-92
2023/08/20 02:11:40;;;;;;;1999.90;999.90;;;22.80;99.90;;;;;;5046935;28;20176;-94
2023/08/20 02:14:06;;;;;;;1999.90;999.90;;;22.80;99.90;;;;;;5046199;28;20262;-93
2023/08/20 02:16:32;;;;;;;1999.90;999.90;;;22.80;99.90;;;;;;5046671;28;20706;-92
2023/08/20 02:18:58;;;;;;;1999.90;999.90;;;22.80;99.90;;;;;;5046508;28;20205;-93
2023/08/20 02:21:23;;;;;;;1999.90;999.90;;;22.80;99.90;;;;;;5054756;28;20188;-94
2023/08/20 02:23:49;;;;;;;1999.90;999.90;;;22.80;99.90;;;;;;5058515;28;20161;-95
2023/08/20 02:26:15;;;;;;;1999.90;999.90;;;22.70;99.90;;;;;;5058121;28;20208;-95
2023/08/20 02:28:40;;;;;;;1999.90;999.90;;;22.70;99.90;;;;;;5050939;28;20184;-94
2023/08/20 02:31:06;;;;;;;1999.90;999.90;;;22.50;99.90;;;;;;5048424;28;20189;-93
2023/08/20 02:33:32;;;;;;;1999.90;999.90;;;22.40;99.90;;;;;;5047104;28;20212;-92
2023/08/20 02:36:04;;;;;;;1999.90;999.90;;;22.60;99.90;;;;;;5048963;28;20180;-93
2023/08/20 02:38:30;;;;;;;1999.90;999.90;;;22.50;99.90;;;;;;5048198;28;20199;-93
2023/08/20 02:40:56;;;;;;;1999.90;999.90;;;22.40;99.90;;;;;;5047566;28;20181;-93
2023/08/20 02:43:22;;;;;;;1999.90;999.90;;;22.30;99.90;;;;;;5047343;28;20189;-94
2023/08/20 02:45:48;;;;;;;1999.90;999.90;;;22.20;99.90;;;;;;5046991;28;20201;-93
2023/08/20 02:48:14;;;;;;;1999.90;999.90;;;22.20;99.90;;;;;;5046039;28;20201;-92
2023/08/20 02:50:40;;;;;;;1999.90;999.90;;;22.40;99.90;;;;;;5047006;28;20223;-92
2023/08/20 02:53:06;;;;;;;1999.90;999.90;;;22.30;99.90;;;;;;5047166;28;20268;-92
2023/08/20 02:55:32;;;;;;;1999.90;999.90;;;22.20;99.90;;;;;;5048327;28;20177;-94
2023/08/20 02:57:58;;;;;;;1999.90;999.90;;;22.20;99.90;;;;;;5029989;28;20228;-92
2023/08/20 03:00:24;;;;;;;1999.90;999.90;;;22.10;99.90;;;;;;5047365;28;20191;-93
2023/08/20 03:02:50;;;;;;;1999.90;999.90;;;22.20;99.90;;;;;;5046523;28;20227;-92
2023/08/20 03:05:16;;;;;;;1999.90;999.90;;;22.30;99.90;;;;;;5039284;28;20351;-93
2023/08/20 03:07:42;;;;;;;1999.90;999.90;;;22.40;99.90;;;;;;5046053;28;20227;-93
2023/08/20 03:10:07;;;;;;;1999.90;999.90;;;22.30;99.90;;;;;;5046630;28;20179;-92
2023/08/20 03:12:33;;;;;;;1999.90;999.90;;;22.20;99.90;;;;;;5046625;28;20203;-94
2023/08/20 03:14:59;;;;;;;1999.90;999.90;;;22.20;99.90;;;;;;5044535;28;20176;-91
2023/08/20 03:17:25;;;;;;;1999.90;999.90;;;22.10;99.90;;;;;;5031820;28;20197;-94
2023/08/20 03:19:58;;;;;;;1999.90;999.90;;;22.00;99.90;;;;;;5031271;28;20243;-93
2023/08/20 03:22:25;;;;;;;1999.90;999.90;;;21.80;99.90;;;;;;5047429;28;20219;-94
2023/08/20 03:24:51;;;;;;;1999.90;999.90;;;21.80;99.90;;;;;;5046378;28;20180;-93
2023/08/20 03:27:17;;;;;;;1999.90;999.90;;;21.90;99.90;;;;;;5028563;28;20282;-94
2023/08/20 03:29:44;;;;;;;1999.90;999.90;;;21.80;99.90;;;;;;5045681;28;20212;-93
2023/08/20 03:32:10;;;;;;;1999.90;999.90;;;21.90;99.90;;;;;;5045124;28;20177;-91
2023/08/20 03:34:36;;;;;;;1999.90;999.90;;;22.00;99.90;;;;;;5045616;28;20208;-94
2023/08/20 03:37:02;;;;;;;1999.90;999.90;;;22.00;99.90;;;;;;5045774;28;20193;-93
2023/08/20 03:39:31;;;;;;;1999.90;999.90;;;21.90;99.90;;;;;;5046240;28;20733;-92
2023/08/20 03:41:57;;;;;;;1999.90;999.90;;;21.80;99.90;;;;;;5045792;28;20221;-92
2023/08/20 03:44:22;;;;;;;1999.90;999.90;;;21.70;99.90;;;;;;5027796;28;20200;-94
2023/08/20 03:46:48;;;;;;;1999.90;999.90;;;21.80;99.90;;;;;;5028097;28;20192;-93
2023/08/20 03:49:14;;;;;;;1999.90;999.90;;;21.70;99.90;;;;;;5035904;28;20186;-93
2023/08/20 03:51:40;;;;;;;1999.90;999.90;;;21.70;99.90;;;;;;5024282;28;20238;-93
2023/08/20 03:54:06;;;;;;;1999.90;999.90;;;21.80;99.90;;;;;;5026580;28;20189;-93
2023/08/20 03:56:32;;;;;;;1999.90;999.90;;;21.80;99.90;;;;;;5045333;28;20867;-93
2023/08/20 03:58:58;;;;;;;1999.90;999.90;;;21.80;99.90;;;;;;5045935;28;20195;-93
2023/08/20 04:01:24;;;;;;;1999.90;999.90;;;21.80;99.90;;;;;;5027514;28;20268;-93
2023/08/20 04:03:49;;;;;;;1999.90;999.90;;;21.80;99.90;;;;;;5044559;28;20176;-94
2023/08/20 04:06:18;;;;;;;1999.90;999.90;;;21.70;99.90;;;;;;5043671;28;20244;-93
2023/08/20 04:08:44;;;;;;;1999.90;999.90;;;21.70;99.90;;;;;;5027097;28;20196;-95
2023/08/20 04:11:10;;;;;;;1999.90;999.90;;;21.80;99.90;;;;;;5045021;28;20177;-93
2023/08/20 04:13:35;;;;;;;1999.90;999.90;;;21.90;99.90;;;;;;5045098;28;20173;-91
2023/08/20 04:16:01;;;;;;;1999.90;999.90;;;21.90;99.90;;;;;;5026934;28;20245;-93
2023/08/20 04:18:27;;;;;;;1999.90;999.90;;;21.90;99.90;;;;;;5044254;28;20219;-93
2023/08/20 04:20:53;;;;;;;1999.90;999.90;;;22.00;99.90;;;;;;5026760;28;20181;-92
2023/08/20 04:23:19;;;;;;;1999.90;999.90;;;22.00;99.90;;;;;;5026088;28;20232;-93
2023/08/20 04:25:45;;;;;;;1999.90;999.90;;;21.90;99.90;;;;;;5045164;28;20173;-93
2023/08/20 04:28:15;;;;;;;1999.90;999.90;;;21.90;99.90;;;;;;5044085;28;20237;-92
2023/08/20 04:30:41;;;;;;;1999.90;999.90;;;21.90;99.90;;;;;;5027581;28;20181;-93
2023/08/20 04:33:06;;;;;;;1999.90;999.90;;;21.70;99.90;;;;;;5048336;28;20174;-93
2023/08/20 04:35:36;;;;;;;1999.90;999.90;;;21.60;99.90;;;;;;5048154;28;20211;-93
2023/08/20 04:38:02;;;;;;;1999.90;999.90;;;21.50;99.90;;;;;;5047938;28;20201;-94
2023/08/20 04:40:28;;;;;;;1999.90;999.90;;;21.60;99.90;;;;;;5029975;28;20235;-93
2023/08/20 04:42:54;;;;;;;1999.90;999.90;;;21.60;99.90;;;;;;5048416;28;20252;-93
2023/08/20 04:45:19;;;;;;;1999.90;999.90;;;21.60;99.90;;;;;;5048700;28;20177;-94
2023/08/20 04:47:46;;;;;;;1999.90;999.90;;;21.60;99.90;;;;;;5049047;28;20188;-94
2023/08/20 04:50:13;;;;;;;1999.90;999.90;;;21.70;99.90;;;;;;5049002;28;20174;-94
2023/08/20 04:52:39;;;;;;;1999.90;999.90;;;21.70;99.90;;;;;;5049091;28;20185;-92
2023/08/20 04:55:06;;;;;;;1999.90;999.90;;;21.60;99.90;;;;;;5030798;28;20181;-91
2023/08/20 04:57:32;;;;;;;1999.90;999.90;;;21.60;99.90;;;;;;5031265;28;20310;-94
2023/08/20 04:59:58;;;;;;;1310.78;999.90;;;21.60;99.90;;;;;;5031431;28;20260;-93
2023/08/20 05:02:24;;;;;;;1331.30;999.90;;;21.60;99.90;;;;;;5048452;28;20199;-93
2023/08/20 05:04:50;;;;;;;1316.95;999.90;;;21.60;99.90;;;;;;5048964;28;20180;-93
2023/08/20 05:07:16;;;;;;;1301.10;999.10;;;21.60;99.90;;;;;;5048678;28;20288;-94
2023/08/20 05:09:41;;;;;;;1552.47;999.90;;;21.70;99.90;;;;;;5048705;28;20177;-94
2023/08/20 05:12:07;;;;;;;1562.35;999.90;;;21.70;99.90;;;;;;5048568;28;20396;-92
2023/08/20 05:14:33;;;;;;;1999.90;999.90;;;21.60;99.90;;;;;;5048248;28;20199;-93
2023/08/20 05:16:59;;;;;;;1999.90;999.90;;;21.80;99.90;;;;;;5031023;28;20200;-92
2023/08/20 05:19:25;;;;;;;1999.90;999.90;;;21.90;99.90;;;;;;5030481;28;20208;-93
2023/08/20 05:21:55;;;;;;;1999.90;999.90;;;22.10;99.90;;;;;;5032045;28;20208;-93
2023/08/20 05:24:23;;;;;;;1999.90;999.90;;;22.30;99.90;;;;;;5031249;28;20188;-94
2023/08/20 05:27:10;;;;;;;1999.90;999.90;;;22.50;99.90;;;;;;5048627;28;20193;-93
2023/08/20 05:29:37;;;;;;;1999.90;999.90;;;22.60;99.90;;;;;;5047313;28;20189;-94
2023/08/20 05:32:03;;;;;;;1999.90;999.90;;;22.60;99.90;;;;;;5047957;28;20192;-92
2023/08/20 05:34:29;;;;;;;1999.90;999.90;;;22.60;99.90;;;;;;5048121;28;20185;-93
2023/08/20 05:36:55;;;;;;;1999.90;999.90;;;22.60;99.90;;;;;;5047989;28;20209;-93
2023/08/20 05:39:23;;;;;;;1999.90;999.90;;;22.50;99.90;;;;;;5047525;28;20232;-94
2023/08/20 05:41:49;;;;;;;1999.90;999.90;;;22.50;99.90;;;;;;5047717;28;20224;-93
2023/08/20 05:44:15;;;;;;;1999.90;999.90;;;22.50;99.90;;;;;;5047780;28;20192;-93
2023/08/20 05:46:40;;;;;;;1999.90;999.90;;;22.60;99.90;;;;;;5048006;28;20200;-92
2023/08/20 05:49:06;;;;;;;1999.90;999.90;;;22.70;99.90;;;;;;5047550;28;20173;-94
2023/08/20 05:51:32;;;;;;;1999.90;999.90;;;22.80;99.90;;;;;;5048180;28;20236;-93
2023/08/20 05:53:57;;;;;;;1999.90;999.90;;;23.00;99.90;;;;;;5047560;28;20177;-94
2023/08/20 05:56:23;;;;;;;1999.90;999.90;;;23.00;99.90;;;;;;5029018;28;20479;-93
2023/08/20 05:58:49;;;;;;;1999.90;999.90;;;23.10;99.90;;;;;;5030413;28;20231;-94
2023/08/20 06:01:14;;;;;;;1999.90;999.90;;;23.10;99.90;;;;;;5049049;28;20203;-94
2023/08/20 06:03:40;;;;;;;1999.90;999.90;;;23.10;99.90;;;;;;5051611;28;20247;-92
2023/08/20 06:06:06;;;;;;;1999.90;999.90;;;23.10;99.90;;;;;;5049755;28;20244;-93
2023/08/20 06:08:31;;;;;;;1999.90;999.90;;;23.10;99.90;;;;;;5048311;28;20270;-93
2023/08/20 06:10:57;;;;;;;1999.90;999.90;;;23.20;99.90;;;;;;5050428;28;20173;-93
2023/08/20 06:13:23;;;;;;;1999.90;999.90;;;23.10;99.90;;;;;;5048312;28;20184;-93
2023/08/20 06:15:48;;;;;;;1999.90;999.90;;;23.10;99.90;;;;;;5047605;28;20180;-90
2023/08/20 06:18:14;;;;;;;1999.90;999.90;;;23.10;99.90;;;;;;5030700;28;20705;-94
2023/08/20 06:20:40;;;;;;;1999.90;999.90;;;23.20;99.90;;;;;;5050928;28;20185;-95
2023/08/20 06:23:09;;;;;;;1999.90;999.90;;;23.20;99.90;;;;;;5040032;28;20200;-96
2023/08/20 06:25:35;;;;;;;1999.90;999.90;;;23.20;99.90;;;;;;5057635;28;20249;-93
2023/08/20 06:28:01;;;;;;;1999.90;999.90;;;23.20;99.90;;;;;;5057763;28;20188;-92
2023/08/20 06:30:26;;;;;;;1999.90;999.90;;;23.30;99.90;;;;;;5057579;28;20169;-93
2023/08/20 06:32:52;;;;;;;1999.90;999.90;;;23.40;99.90;;;;;;5057918;28;20221;-95
2023/08/20 06:35:18;;;;;;;1999.90;999.90;;;23.60;99.90;;;;;;5057815;28;20177;-94
2023/08/20 06:37:43;;;;;;;1999.90;999.90;;;23.70;99.90;;;;;;5056465;28;20303;-93
2023/08/20 06:40:09;;;;;;;1999.90;999.90;;;23.80;99.90;;;;;;5053486;28;20192;-91
2023/08/20 06:42:35;;;;;;;1999.90;999.90;;;23.90;99.90;;;;;;5047648;28;20212;-93
2023/08/20 06:45:01;;;;;;;1999.90;999.90;;;24.10;99.90;;;;;;5044379;28;20169;-94
2023/08/20 06:47:26;;;;;;;1999.90;999.90;;;24.40;99.80;;;;;;5049232;28;20193;-94
2023/08/20 06:49:52;;;;;;;1999.90;999.90;;;24.60;98.30;;;;;;5057315;28;20235;-92
2023/08/20 06:52:18;;;;;;;1999.90;999.90;;;24.60;96.50;;;;;;5056416;28;20173;-95
2023/08/20 06:54:44;;;;;;;1999.90;999.90;;;24.70;95.70;;;;;;5054125;28;20610;-96
2023/08/20 06:57:10;;;;;;;1999.90;999.90;;;24.70;93.80;;;;;;5041358;28;20247;-92
2023/08/20 06:59:35;;;;;;;1999.90;999.90;;;24.70;92.20;;;;;;5040435;28;20184;-92
2023/08/20 07:02:03;;;;;;;1999.90;999.90;;;24.70;92.40;;;;;;5039735;28;20213;-93
2023/08/20 07:04:28;;;;;;;1999.90;999.90;;;24.60;92.20;;;;;;5040256;28;20634;-93
2023/08/20 07:06:54;;;;;;;1999.90;999.90;;;24.60;92.80;;;;;;5040310;28;20215;-95
2023/08/20 07:09:20;;;;;;;1999.90;999.90;;;24.80;90.90;;;;;;5039895;28;20181;-93
2023/08/20 07:11:45;;;;;;;1999.90;999.90;;;24.80;90.20;;;;;;5040220;28;20213;-95
2023/08/20 07:14:11;;;;;;;1999.90;999.90;;;24.90;90.20;;;;;;5040873;28;20173;-93
2023/08/20 07:16:36;;;;;;;1999.90;999.90;;;24.90;90.30;;;;;;5040092;28;20205;-94
2023/08/20 07:19:02;;;;;;;1999.90;999.90;;;24.90;90.00;;;;;;5040469;28;20286;-93
2023/08/20 07:21:28;;;;;;;1999.90;999.90;;;24.90;90.00;;;;;;5038374;28;20247;-92
2023/08/20 07:23:53;;;;;;;1999.90;999.90;;;24.90;90.30;;;;;;5037896;28;20177;-92
2023/08/20 07:26:21;;;;;;;1999.90;999.90;;;24.90;91.10;;;;;;5038053;28;20197;-93
2023/08/20 07:28:59;;;;;;;1999.90;999.90;;;24.90;91.20;;;;;;5020422;28;20173;-91
2023/08/20 07:31:30;;;;;;;1999.90;999.90;;;24.90;90.80;;;;;;5037906;28;20160;-93
2023/08/20 07:33:57;;;;;;;1999.90;999.90;;;25.00;90.20;;;;;;5037024;28;20271;-96
2023/08/20 07:36:25;;;;;;;1999.90;999.90;;;25.20;89.40;;;;;;5036426;28;20181;-93
2023/08/20 07:38:51;;;;;;;1999.90;999.90;;;25.40;89.50;;;;;;5038695;28;20173;-92
2023/08/20 07:41:17;;;;;;;1999.90;999.90;;;25.50;88.40;;;;;;5045643;28;20187;-94
2023/08/20 07:43:43;;;;;;;1999.90;999.90;;;25.40;87.70;;;;;;5044098;28;20203;-92
2023/08/20 07:46:09;;;;;;;1999.90;999.90;;;25.60;88.20;;;;;;5038367;28;20287;-93
2023/08/20 07:48:35;;;;;;;1999.90;999.90;;;25.70;86.60;;;;;;5039364;28;20216;-92
2023/08/20 07:51:02;;;;;;;1999.90;999.90;;;25.80;85.70;;;;;;5038560;28;20611;-92
2023/08/20 07:53:29;;;;;;;1999.90;999.90;;;25.70;86.30;;;;;;5038989;28;20173;-93
2023/08/20 07:55:55;;;;;;;1999.90;999.90;;;25.70;86.90;;;;;;5039061;28;20222;-92
2023/08/20 07:58:20;;;;;;;1999.90;999.90;;;25.80;86.80;;;;;;5020545;28;20675;-92
2023/08/20 08:00:46;;;;;;;1999.90;999.90;;;25.90;86.50;;;;;;5038901;28;20180;-93
2023/08/20 08:03:15;;;;;;;1999.90;999.90;;;26.00;86.50;;;;;;5038677;28;20232;-90
2023/08/20 08:05:41;;;;;;;1999.90;999.90;;;26.10;86.90;;;;;;5021869;28;20181;-93
2023/08/20 08:08:07;;;;;;;1999.90;999.90;;;26.20;86.10;;;;;;5043699;28;20196;-91
2023/08/20 08:10:32;;;;;;;1999.90;999.90;;;26.40;84.70;;;;;;5042235;28;20279;-95
2023/08/20 08:12:58;;;;;;;1999.90;999.90;;;26.60;83.70;;;;;;5042296;28;20773;-92
2023/08/20 08:15:24;;;;;;;1999.90;999.90;;;26.70;83.10;;;;;;5043021;28;20180;-91
2023/08/20 08:17:49;;;;;;;1999.90;999.90;;;26.80;82.00;;;;;;5042784;28;20208;-93
2023/08/20 08:20:15;;;;;;;1999.90;999.90;;;26.90;81.40;;;;;;5026438;28;20543;-93
2023/08/20 08:22:41;;;;;;;1999.90;999.90;;;26.90;82.70;;;;;;5024014;28;20200;-92
2023/08/20 08:25:06;;;;;;;1999.90;999.90;;;27.00;81.80;;;;;;5040027;28;20181;-91
2023/08/20 08:27:32;;;;;;;1999.90;999.90;;;27.00;81.50;;;;;;5028574;28;20200;-94
2023/08/20 08:29:58;;;;;;;1999.90;999.90;;;27.20;81.20;;;;;;5041943;28;20298;-93
2023/08/20 08:32:23;;;;;;;1999.90;999.90;;;27.30;80.70;;;;;;5041897;28;20246;-93
2023/08/20 08:34:50;;;;;;;1999.90;999.90;;;27.20;81.30;;;;;;5041424;28;20292;-94
2023/08/20 08:37:16;;;;;;;1999.90;999.90;;;27.20;80.70;;;;;;5041639;28;20201;-93
2023/08/20 08:39:42;;;;;;;1999.90;999.90;;;27.20;80.70;;;;;;5042414;28;20181;-92
2023/08/20 08:42:10;;;;;;;1999.90;999.90;;;27.50;80.10;;;;;;5042566;28;20296;-94
2023/08/20 08:44:37;;;;;;;1999.90;999.90;;;27.50;79.00;;;;;;5042267;28;20185;-93
2023/08/20 08:47:04;;;;;;;1999.90;999.90;;;27.60;78.00;;;;;;5042746;28;20563;-91
2023/08/20 08:49:36;;;;;;;1999.90;999.90;;;27.50;78.50;;;;;;5042328;28;20226;-93
2023/08/20 08:52:04;;;;;;;1999.90;999.90;;;27.50;79.30;;;;;;5045916;28;20189;-93
2023/08/20 08:54:32;;;;;;;1999.90;999.90;;;27.50;79.20;;;;;;5042658;28;20185;-93
2023/08/20 08:56:58;;;;;;;1999.90;999.90;;;27.50;78.70;;;;;;5043745;28;20565;-93
2023/08/20 08:59:23;;;;;;;1999.90;999.90;;;27.70;78.50;;;;;;5042951;28;20199;-93
2023/08/20 09:01:49;;;;;;;1999.90;999.90;;;27.80;78.50;;;;;;5025372;28;20295;-93
2023/08/20 09:04:15;;;;;;;1999.90;999.90;;;28.00;78.70;;;;;;5042683;28;20181;-93
2023/08/20 09:06:49;;;;;;;1999.90;999.90;;;28.30;76.40;;;;;;5042165;28;20196;-93
2023/08/20 09:09:16;;;;;;;1999.90;999.90;;;28.40;75.40;;;;;;5042307;28;20169;-92
2023/08/20 09:11:41;;;;;;;1999.90;999.90;;;28.40;75.70;;;;;;5042401;28;20660;-92
2023/08/20 09:14:07;;;;;;;1999.90;999.90;;;28.40;75.50;;;;;;5043171;28;20177;-93
2023/08/20 09:16:33;;;;;;;1999.90;999.90;;;28.70;73.80;;;;;;5042121;28;20673;-93
2023/08/20 09:19:02;;;;;;;1999.90;999.90;;;28.60;74.10;;;;;;5023180;28;20196;-94
2023/08/20 09:21:29;;;;;;;1999.90;999.90;;;28.60;73.60;;;;;;5042118;28;20264;-93
2023/08/20 09:24:01;;;;;;;1999.90;999.90;;;28.80;73.70;;;;;;5041203;28;20181;-93
2023/08/20 09:26:26;;;;;;;1999.90;999.90;;;28.80;73.50;;;;;;5041252;28;20251;-93
2023/08/20 09:28:56;;;;;;;1999.90;999.90;;;28.80;71.80;;;;;;5042194;28;20177;-92
2023/08/20 09:31:38;;;;;;;1999.90;999.90;;;28.80;72.80;;;;;;5041725;28;20695;-93
2023/08/20 09:34:03;;;;;;;1999.90;999.90;;;29.40;73.70;;;;;;5024103;28;20257;-92
2023/08/20 09:36:34;;;;;;;1999.90;999.90;;;29.50;74.20;;;;;;5042655;28;20208;-93
2023/08/20 09:39:04;;;;;;;1999.90;999.90;;;29.70;72.10;;;;;;5042954;28;20256;-93
2023/08/20 09:41:31;;;;;;;1999.90;999.90;;;29.50;72.10;;;;;;5040349;28;20173;-92
2023/08/20 09:43:59;;;;;;;1999.90;999.90;;;29.20;73.20;;;;;;5042138;28;20233;-92
2023/08/20 09:46:26;;;;;;;1999.90;999.90;;;29.30;74.10;;;;;;5023508;28;20188;-94
2023/08/20 09:48:58;;;;;;;1999.90;999.90;;;29.70;71.80;;;;;;5024462;28;20185;-93
2023/08/20 09:51:33;;;;;;;1999.90;999.90;;;29.60;71.30;;;;;;5041469;28;20204;-93
2023/08/20 09:54:19;;;;;;;1999.90;999.90;;;29.80;68.90;;;;;;5041508;28;20240;-93
2023/08/20 09:56:50;;;;;;;1999.90;999.90;;;29.80;68.20;;;;;;5024030;28;20312;-93
2023/08/20 09:59:17;;;;;;;1999.90;999.90;;;30.20;68.90;;;;;;5040912;28;20215;-95
2023/08/20 10:01:43;;;;;;;1999.90;999.90;;;30.40;68.20;;;;;;5041242;28;20209;-93
2023/08/20 10:04:10;;;;;;;1999.90;999.90;;;30.20;67.70;;;;;;5042603;28;20176;-93
2023/08/20 10:06:37;;;;;;;1999.90;999.90;;;30.30;68.90;;;;;;5042403;28;20185;-92
2023/08/20 10:09:03;;;;;;;1999.90;999.90;;;30.80;66.80;;;;;;5041425;28;20173;-93
2023/08/20 10:11:29;;;;;;;1999.90;999.90;;;31.10;64.60;;;;;;5042175;28;20320;-92
2023/08/20 10:13:55;;;;;;;1999.90;999.90;;;30.60;65.20;;;;;;5041272;28;20197;-93
2023/08/20 10:16:22;;;;;;;1999.90;999.90;;;30.40;66.30;;;;;;5040524;28;20184;-94
2023/08/20 10:18:48;;;;;;;1999.90;999.90;;;31.00;64.80;;;;;;5039241;28;20212;-94
2023/08/20 10:21:14;;;;;;;1999.90;999.90;;;31.00;65.00;;;;;;5039929;28;20535;-95
2023/08/20 10:23:48;;;;;;;1999.90;999.90;;;31.30;63.50;;;;;;5039932;28;20181;-93
2023/08/20 10:26:16;;;;;;;1999.90;999.90;;;31.40;62.60;;;;;;5032787;28;20172;-94
2023/08/20 10:28:42;;;;;;;1999.90;999.90;;;31.10;64.10;;;;;;5040419;28;20296;-92
2023/08/20 10:31:12;;;;;;;1999.90;999.90;;;31.10;63.80;;;;;;5040830;28;20806;-92
2023/08/20 10:33:55;;;;;;;1999.90;999.90;;;31.00;64.60;;;;;;5040899;28;20173;-94
2023/08/20 10:36:26;;;;;;;1999.90;999.90;;;31.40;63.50;;;;;;5040514;28;20157;-93
2023/08/20 10:38:55;;;;;;;1999.90;999.90;;;31.60;62.60;;;;;;5041955;28;20180;-94
2023/08/20 10:41:30;;;;;;;1999.90;999.90;;;31.50;62.00;;;;;;5040696;28;20180;-93
2023/08/20 10:44:00;;;;;;;1999.90;999.90;;;31.60;62.90;;;;;;5041640;28;20180;-93
2023/08/20 10:46:30;;;;;;;1999.90;999.90;;;32.00;61.00;;;;;;5041797;28;20181;-93
2023/08/20 10:49:01;;;;;;;1999.90;999.90;;;31.70;60.60;;;;;;5040787;28;20585;-94
2023/08/20 10:51:32;;;;;;;1999.90;999.90;;;31.90;61.00;;;;;;5040984;28;20188;-93
2023/08/20 10:54:01;;;;;;;1999.90;999.90;;;32.90;58.50;;;;;;5042036;28;20207;-93
2023/08/20 10:56:47;;;;;;;1999.90;999.90;;;32.80;56.50;;;;;;5041337;28;20184;-94
2023/08/20 10:59:16;;;;;;;1999.90;999.90;;;33.10;55.50;;;;;;5040656;28;20188;-93
2023/08/20 11:01:47;;;;;;;1999.90;999.90;;;33.20;55.70;;;;;;5023708;28;20234;-92
2023/08/20 11:04:17;;;;;;;1999.90;999.90;;;33.40;55.70;;;;;;5040989;28;20161;-94
2023/08/20 11:06:44;;;;;;;1999.90;999.90;;;32.80;55.80;;;;;;5040066;28;20193;-93
2023/08/20 11:09:13;;;;;;;1999.90;999.90;;;32.50;57.60;;;;;;5040371;28;20567;-93
2023/08/20 11:11:42;;;;;;;1999.90;999.90;;;32.50;57.60;;;;;;5041274;28;20184;-92
2023/08/20 11:14:15;;;;;;;1999.90;999.90;;;33.60;54.00;;;;;;5040720;28;20184;-93
2023/08/20 11:16:43;;;;;;;1999.90;999.90;;;33.60;53.70;;;;;;5041908;28;20197;-93
2023/08/20 11:19:09;;;;;;;1999.90;999.90;;;33.30;55.40;;;;;;5039975;28;20199;-94
2023/08/20 11:21:35;;;;;;;1999.90;999.90;;;33.20;54.10;;;;;;5040839;28;22131;-93
2023/08/20 11:24:02;;;;;;;1999.90;999.90;;;33.10;54.70;;;;;;5042430;28;20714;-94
2023/08/20 11:26:27;;;;;;;1999.90;999.90;;;33.90;54.20;;;;;;5044209;28;20181;-93
2023/08/20 11:28:53;;;;;;;1999.90;999.90;;;33.90;52.90;;;;;;5043767;28;20176;-92
2023/08/20 11:31:19;;;;;;;1999.90;999.90;;;33.90;52.60;;;;;;5024421;28;20185;-93
2023/08/20 11:33:47;;;;;;;1999.90;999.90;;;33.70;48.00;;;;;;5041844;28;20188;-94
2023/08/20 11:36:16;;;;;;;1999.90;999.90;;;33.70;47.00;;;;;;5036718;28;20177;-94
2023/08/20 11:38:42;;;;;;;1999.90;999.90;;;33.80;46.60;;;;;;5033964;28;20237;-94
2023/08/20 11:41:11;;;;;;;1999.90;999.90;;;34.50;45.00;;;;;;5041121;28;20193;-93
2023/08/20 11:43:37;;;;;;;1999.90;999.90;;;34.60;43.80;;;;;;5041988;28;20228;-93
2023/08/20 11:46:02;;;;;;;1999.90;999.90;;;34.40;42.70;;;;;;5041537;28;20185;-93
2023/08/20 11:48:29;;;;;;;1999.90;999.90;;;34.70;42.90;;;;;;5023814;28;20197;-93
2023/08/20 11:50:57;;;;;;;1999.90;999.90;;;35.30;41.80;;;;;;5041089;28;20208;-94
2023/08/20 11:53:23;;;;;;;1999.90;999.90;;;35.20;41.30;;;;;;5041610;28;20183;-92
2023/08/20 11:55:49;;;;;;;1999.90;999.90;;;35.90;39.50;;;;;;5041669;28;20180;-94
2023/08/20 11:58:15;;;;;;;1999.90;999.90;;;35.70;40.40;;;;;;5024564;28;20290;-94